Time;durP1;ratioP1;P1;durP2;ratioP2;P2;SDS_P1;SDS_P2;PMS_P1;PMS_P2;Temp;Humidity;BMP_temperature;BMP_pressure;BME280_temperature;BME280_humidity;BME280_pressure;Samples;Min_cycle;Max_cycle;Signal;HPM_P1;HPM_P2
2022/03/28 00:01:22;;;;;;;0.50;0.40;;;8.50;99.90;;;;;;5073137;28;20198;-76
2022/03/28 00:03:48;;;;;;;0.50;0.40;;;8.50;99.90;;;;;;5073558;28;20189;-77
2022/03/28 00:06:16;;;;;;;0.50;0.50;;;8.60;99.90;;;;;;5073373;28;20196;-76
2022/03/28 00:08:43;;;;;;;0.50;0.40;;;8.50;99.90;;;;;;5072891;28;20230;-77
2022/03/28 00:11:10;;;;;;;0.50;0.40;;;8.50;99.90;;;;;;5072145;28;20190;-77
2022/03/28 00:13:37;;;;;;;0.50;0.40;;;8.50;99.90;;;;;;5073113;28;20211;-77
2022/03/28 00:16:05;;;;;;;0.50;0.40;;;8.40;99.90;;;;;;5073090;28;20205;-77
2022/03/28 00:18:31;;;;;;;0.60;0.40;;;8.40;99.90;;;;;;5072981;28;20226;-76
2022/03/28 00:20:58;;;;;;;0.50;0.40;;;8.30;99.90;;;;;;5071799;28;20198;-77
2022/03/28 00:23:27;;;;;;;0.50;0.40;;;8.30;99.90;;;;;;5072924;28;20202;-77
2022/03/28 00:25:54;;;;;;;0.50;0.40;;;8.30;99.90;;;;;;5072517;28;20288;-77
2022/03/28 00:28:20;;;;;;;0.50;0.40;;;8.30;99.90;;;;;;5072661;28;20194;-76
2022/03/28 00:30:47;;;;;;;0.50;0.40;;;8.30;99.90;;;;;;5071991;28;20193;-77
2022/03/28 00:33:14;;;;;;;0.50;0.40;;;8.30;99.90;;;;;;5070956;28;20214;-74
2022/03/28 00:35:41;;;;;;;0.50;0.40;;;8.20;99.90;;;;;;5072705;28;20684;-77
2022/03/28 00:38:07;;;;;;;0.50;0.40;;;8.20;99.90;;;;;;5072205;28;20205;-75
2022/03/28 00:40:36;;;;;;;0.50;0.40;;;8.20;99.90;;;;;;5071797;28;20199;-76
2022/03/28 00:43:05;;;;;;;0.50;0.40;;;8.30;99.90;;;;;;5072485;28;20219;-76
2022/03/28 00:45:33;;;;;;;0.60;0.50;;;8.30;99.90;;;;;;5072790;28;20204;-76
2022/03/28 00:48:00;;;;;;;0.50;0.40;;;8.40;99.90;;;;;;5071909;28;20194;-76
2022/03/28 00:50:28;;;;;;;0.50;0.40;;;8.40;99.90;;;;;;5071590;28;20213;-76
2022/03/28 00:52:55;;;;;;;0.95;0.95;;;8.40;99.90;;;;;;5072180;28;20214;-76
2022/03/28 00:55:22;;;;;;;0.50;0.40;;;8.40;99.90;;;;;;5072225;28;20189;-76
2022/03/28 00:57:50;;;;;;;0.50;0.40;;;8.40;99.90;;;;;;5072122;28;20233;-76
2022/03/28 01:00:17;;;;;;;0.60;0.60;;;8.30;99.90;;;;;;5071618;28;20223;-77
2022/03/28 01:02:45;;;;;;;0.50;0.40;;;8.30;99.90;;;;;;5071771;28;20212;-77
2022/03/28 01:05:12;;;;;;;0.50;0.40;;;8.30;99.90;;;;;;5071512;28;20190;-76
2022/03/28 01:07:40;;;;;;;0.50;0.40;;;8.30;99.90;;;;;;5072152;28;20225;-77
2022/03/28 01:10:09;;;;;;;5.45;3.42;;;8.30;99.90;;;;;;5071121;28;20225;-76
2022/03/28 01:12:36;;;;;;;0.70;0.70;;;8.30;99.90;;;;;;5071713;28;20904;-76
2022/03/28 01:15:06;;;;;;;0.50;0.40;;;8.30;99.90;;;;;;5072335;28;20220;-76
2022/03/28 01:20:17;;;;;;;0.50;0.40;;;8.20;99.90;;;;;;5071218;28;20332;-75
2022/03/28 01:22:45;;;;;;;1.08;1.08;;;8.10;99.90;;;;;;5072040;28;20213;-76
2022/03/28 01:25:12;;;;;;;0.50;0.40;;;8.00;99.90;;;;;;5071910;28;20194;-76
2022/03/28 01:27:41;;;;;;;0.50;0.40;;;7.90;99.90;;;;;;5071551;28;20575;-77
2022/03/28 01:30:08;;;;;;;0.50;0.40;;;7.90;99.90;;;;;;5070455;28;20215;-76
2022/03/28 01:32:35;;;;;;;0.50;0.40;;;7.80;99.90;;;;;;5070003;28;20213;-76
2022/03/28 01:35:02;;;;;;;0.50;0.40;;;7.80;99.90;;;;;;5071770;28;20245;-77
2022/03/28 01:37:28;;;;;;;0.50;0.40;;;7.90;99.90;;;;;;5071563;28;20194;-76
2022/03/28 01:39:57;;;;;;;0.50;0.40;;;7.90;99.90;;;;;;5070772;28;20287;-77
2022/03/28 01:42:23;;;;;;;0.50;0.40;;;7.90;99.90;;;;;;5071401;28;20749;-77
2022/03/28 01:44:52;;;;;;;0.50;0.40;;;7.80;99.90;;;;;;5071584;28;20190;-77
2022/03/28 01:47:18;;;;;;;0.50;0.40;;;7.80;99.90;;;;;;5071460;28;20197;-76
2022/03/28 01:49:45;;;;;;;0.50;0.40;;;7.70;99.90;;;;;;5070336;28;20217;-77
2022/03/28 01:52:12;;;;;;;0.50;0.40;;;7.70;99.90;;;;;;5071401;28;20201;-77
2022/03/28 01:54:38;;;;;;;0.50;0.40;;;7.70;99.90;;;;;;5070898;28;20698;-77
2022/03/28 01:57:11;;;;;;;0.50;0.30;;;7.60;99.90;;;;;;5071628;28;20572;-77
2022/03/28 01:59:37;;;;;;;0.50;0.40;;;7.60;99.90;;;;;;5070645;28;20217;-76
2022/03/28 02:02:05;;;;;;;0.50;0.40;;;7.60;99.90;;;;;;5071545;28;20294;-74
2022/03/28 02:04:32;;;;;;;0.50;0.40;;;7.60;99.90;;;;;;5070911;28;20194;-77
2022/03/28 02:06:58;;;;;;;0.50;0.40;;;7.60;99.90;;;;;;5071263;28;20194;-77
2022/03/28 02:09:25;;;;;;;0.50;0.40;;;7.60;99.90;;;;;;5087368;22;20230;-76
2022/03/28 02:11:52;;;;;;;0.50;0.40;;;7.50;99.90;;;;;;5110283;28;20196;-78
2022/03/28 02:14:20;;;;;;;1.13;1.13;;;7.50;99.90;;;;;;5116269;28;20216;-78
2022/03/28 02:16:47;;;;;;;0.50;0.40;;;7.50;99.90;;;;;;5116534;28;20204;-78
2022/03/28 02:19:13;;;;;;;0.50;0.40;;;7.40;99.90;;;;;;5115956;28;20192;-78
2022/03/28 02:21:40;;;;;;;0.50;0.40;;;7.40;99.90;;;;;;5116245;28;20210;-78
2022/03/28 02:24:07;;;;;;;0.50;0.40;;;7.30;99.90;;;;;;5116387;27;20592;-75
2022/03/28 02:26:34;;;;;;;0.50;0.40;;;7.30;99.90;;;;;;5116509;28;20197;-78
2022/03/28 02:29:00;;;;;;;0.50;0.40;;;7.30;99.90;;;;;;5115242;28;20692;-78
2022/03/28 02:31:28;;;;;;;0.50;0.40;;;7.40;99.90;;;;;;5116208;28;20196;-78
2022/03/28 02:33:55;;;;;;;0.50;0.40;;;7.30;99.90;;;;;;5114555;28;20215;-78
2022/03/28 02:36:22;;;;;;;0.50;0.40;;;7.20;99.90;;;;;;5116635;28;20188;-79
2022/03/28 02:38:48;;;;;;;0.50;0.40;;;7.20;99.90;;;;;;5115509;28;20684;-76
2022/03/28 02:41:15;;;;;;;0.50;0.40;;;7.20;99.90;;;;;;5116126;27;20217;-80
2022/03/28 02:43:42;;;;;;;0.50;0.40;;;7.10;99.90;;;;;;5116151;28;20192;-79
2022/03/28 02:46:08;;;;;;;0.50;0.40;;;7.10;99.90;;;;;;5116038;28;20199;-78
2022/03/28 02:48:36;;;;;;;0.60;0.60;;;7.00;99.90;;;;;;5115471;28;20199;-78
2022/03/28 02:51:03;;;;;;;0.50;0.40;;;7.00;99.90;;;;;;5114956;28;20720;-77
2022/03/28 02:53:30;;;;;;;0.50;0.40;;;7.00;99.90;;;;;;5115603;28;20581;-78
2022/03/28 02:55:57;;;;;;;0.50;0.40;;;7.00;99.90;;;;;;5115808;28;20199;-78
2022/03/28 02:58:23;;;;;;;0.50;0.40;;;7.00;99.90;;;;;;5115475;28;20682;-78
2022/03/28 03:00:50;;;;;;;0.50;0.40;;;6.90;99.90;;;;;;5114635;28;20329;-78
2022/03/28 03:03:17;;;;;;;0.50;0.40;;;6.80;99.90;;;;;;5115116;28;20278;-78
2022/03/28 03:05:46;;;;;;;0.50;0.40;;;6.90;99.90;;;;;;5115432;27;20215;-78
2022/03/28 03:08:13;;;;;;;0.50;0.40;;;6.80;99.90;;;;;;5114760;27;20200;-80
2022/03/28 03:10:39;;;;;;;0.50;0.40;;;6.80;99.90;;;;;;5114033;28;20285;-78
2022/03/28 03:13:07;;;;;;;0.60;0.60;;;6.80;99.90;;;;;;5114986;27;20196;-78
2022/03/28 03:15:34;;;;;;;0.50;0.40;;;6.80;99.90;;;;;;5115543;28;20599;-78
2022/03/28 03:18:01;;;;;;;0.50;0.40;;;6.70;99.90;;;;;;5114568;28;20204;-78
2022/03/28 03:20:28;;;;;;;0.50;0.40;;;6.70;99.90;;;;;;5114224;28;20217;-78
2022/03/28 03:22:56;;;;;;;0.50;0.40;;;6.70;99.90;;;;;;5115304;28;20600;-77
2022/03/28 03:25:23;;;;;;;0.50;0.40;;;6.70;99.90;;;;;;5114737;28;20219;-77
2022/03/28 03:27:51;;;;;;;0.50;0.40;;;6.70;99.90;;;;;;5114559;28;20200;-77
2022/03/28 03:30:19;;;;;;;0.50;0.40;;;6.70;99.90;;;;;;5113950;28;20217;-79
2022/03/28 03:32:46;;;;;;;0.50;0.40;;;6.60;99.90;;;;;;5113962;28;20192;-78
2022/03/28 03:35:12;;;;;;;0.50;0.40;;;6.60;99.90;;;;;;5114387;28;20223;-76
2022/03/28 03:37:40;;;;;;;0.50;0.40;;;6.60;99.90;;;;;;5114685;28;20193;-78
2022/03/28 03:40:12;;;;;;;0.50;0.40;;;6.60;99.90;;;;;;5113172;28;20213;-81
2022/03/28 03:42:39;;;;;;;0.50;0.40;;;6.60;99.90;;;;;;5114574;28;20253;-77
2022/03/28 03:45:07;;;;;;;0.50;0.40;;;6.70;99.90;;;;;;5114194;28;20188;-77
2022/03/28 03:47:34;;;;;;;0.50;0.40;;;6.70;99.90;;;;;;5114043;28;20225;-77
2022/03/28 03:50:00;;;;;;;0.50;0.40;;;6.60;99.90;;;;;;5113004;28;20220;-78
2022/03/28 03:52:27;;;;;;;0.50;0.40;;;6.60;99.90;;;;;;5114397;28;20608;-77
2022/03/28 03:54:54;;;;;;;0.50;0.40;;;6.60;99.90;;;;;;5114042;28;20256;-78
2022/03/28 03:57:22;;;;;;;0.50;0.40;;;6.50;99.90;;;;;;5114317;28;20200;-77
2022/03/28 03:59:49;;;;;;;0.50;0.40;;;6.50;99.90;;;;;;5112877;28;20212;-78
2022/03/28 04:02:15;;;;;;;0.50;0.40;;;6.60;99.90;;;;;;5114056;28;20189;-77
2022/03/28 04:04:42;;;;;;;0.50;0.40;;;6.60;99.90;;;;;;5113578;28;20237;-77
2022/03/28 04:07:09;;;;;;;1.83;1.73;;;6.50;99.90;;;;;;5114002;28;20192;-77
2022/03/28 04:09:36;;;;;;;0.50;0.40;;;6.50;99.90;;;;;;5112817;28;20277;-77
2022/03/28 04:12:03;;;;;;;0.50;0.40;;;6.50;99.90;;;;;;5113797;28;20200;-80
2022/03/28 04:14:31;;;;;;;0.50;0.40;;;6.50;99.90;;;;;;5113262;28;20765;-77
2022/03/28 04:16:58;;;;;;;0.50;0.40;;;6.50;99.90;;;;;;5113875;28;20200;-77
2022/03/28 04:19:25;;;;;;;0.50;0.40;;;6.50;99.90;;;;;;5112989;28;20217;-77
2022/03/28 04:21:51;;;;;;;0.50;0.40;;;6.50;99.90;;;;;;5113383;28;20197;-80
2022/03/28 04:24:18;;;;;;;0.50;0.40;;;6.40;99.90;;;;;;5113448;28;20192;-77
2022/03/28 04:26:45;;;;;;;0.50;0.40;;;6.40;99.90;;;;;;5113500;28;20224;-77
2022/03/28 04:29:12;;;;;;;0.50;0.40;;;6.40;99.90;;;;;;5112297;28;20196;-77
2022/03/28 04:31:40;;;;;;;0.50;0.40;;;6.40;99.90;;;;;;5113099;28;20627;-78
2022/03/28 04:34:07;;;;;;;0.50;0.40;;;6.40;99.90;;;;;;5113034;28;20614;-78
2022/03/28 04:36:34;;;;;;;0.50;0.40;;;6.40;99.90;;;;;;5113093;28;20196;-77
2022/03/28 04:39:01;;;;;;;0.50;0.40;;;6.40;99.90;;;;;;5112690;28;20197;-78
2022/03/28 04:41:28;;;;;;;0.50;0.40;;;6.40;99.90;;;;;;5113328;28;20200;-77
2022/03/28 04:43:54;;;;;;;0.50;0.40;;;6.30;99.90;;;;;;5113333;28;20570;-76
2022/03/28 04:46:21;;;;;;;0.50;0.40;;;6.30;99.90;;;;;;5112772;28;20569;-79
2022/03/28 04:48:49;;;;;;;0.50;0.40;;;6.30;99.90;;;;;;5112365;28;20192;-74
2022/03/28 04:51:16;;;;;;;0.50;0.40;;;6.40;99.90;;;;;;5112595;27;20240;-77
2022/03/28 04:53:42;;;;;;;0.50;0.40;;;6.40;99.90;;;;;;5113124;28;20223;-77
2022/03/28 04:56:09;;;;;;;0.50;0.40;;;6.50;99.90;;;;;;5112283;28;20192;-77
2022/03/28 04:58:36;;;;;;;0.50;0.40;;;6.50;99.90;;;;;;5112843;28;20201;-77
2022/03/28 05:01:03;;;;;;;0.50;0.40;;;6.40;99.90;;;;;;5112040;28;20243;-77
2022/03/28 05:03:29;;;;;;;0.50;0.40;;;6.30;99.90;;;;;;5112891;28;20192;-77
2022/03/28 05:05:57;;;;;;;0.50;0.40;;;6.30;99.90;;;;;;5112516;28;20185;-77
2022/03/28 05:08:24;;;;;;;0.50;0.40;;;6.30;99.90;;;;;;5111996;28;20192;-78
2022/03/28 05:10:51;;;;;;;0.50;0.40;;;6.30;99.90;;;;;;5111401;28;20220;-78
2022/03/28 05:13:17;;;;;;;0.50;0.40;;;6.40;99.90;;;;;;5111970;28;20188;-77
2022/03/28 05:15:44;;;;;;;0.50;0.40;;;6.40;99.90;;;;;;5112277;28;20586;-77
2022/03/28 05:18:11;;;;;;;0.50;0.40;;;6.40;99.90;;;;;;5112295;28;20197;-77
2022/03/28 05:20:37;;;;;;;0.50;0.40;;;6.40;99.90;;;;;;5111245;28;20217;-79
2022/03/28 05:23:05;;;;;;;0.50;0.40;;;6.30;99.90;;;;;;5112457;28;20204;-78
2022/03/28 05:25:32;;;;;;;0.50;0.40;;;6.30;99.90;;;;;;5112225;28;20598;-77
2022/03/28 05:27:59;;;;;;;0.50;0.40;;;6.30;99.90;;;;;;5111958;28;20196;-77
2022/03/28 05:30:25;;;;;;;0.50;0.40;;;6.40;99.90;;;;;;5111404;27;20217;-77
2022/03/28 05:32:52;;;;;;;0.60;0.60;;;6.40;99.90;;;;;;5110386;28;20200;-77
2022/03/28 05:35:19;;;;;;;0.50;0.40;;;6.60;99.90;;;;;;5111897;28;20219;-75
2022/03/28 05:37:46;;;;;;;0.50;0.40;;;6.60;99.90;;;;;;5111545;28;20208;-78
2022/03/28 05:40:14;;;;;;;0.50;0.40;;;6.70;99.90;;;;;;5110937;28;20215;-75
2022/03/28 05:42:41;;;;;;;0.50;0.40;;;6.70;99.90;;;;;;5111724;28;20193;-76
2022/03/28 05:45:11;;;;;;;0.50;0.40;;;6.80;99.90;;;;;;5110901;28;20558;-75
2022/03/28 05:47:37;;;;;;;3.08;2.90;;;6.90;99.90;;;;;;5111581;28;20701;-78
2022/03/28 05:50:05;;;;;;;0.50;0.40;;;7.00;99.90;;;;;;5111187;28;20223;-74
2022/03/28 05:52:31;;;;;;;0.50;0.40;;;7.20;99.90;;;;;;5111529;28;20192;-77
2022/03/28 05:54:58;;;;;;;0.50;0.40;;;7.30;99.90;;;;;;5111288;28;20212;-75
2022/03/28 05:57:26;;;;;;;0.50;0.40;;;7.50;99.90;;;;;;5111726;28;20204;-74
2022/03/28 05:59:53;;;;;;;0.50;0.40;;;7.80;99.90;;;;;;5110679;28;20216;-76
2022/03/28 06:02:19;;;;;;;0.60;0.40;;;8.30;99.90;;;;;;5111936;28;20192;-74
2022/03/28 06:04:47;;;;;;;0.50;0.40;;;8.80;99.90;;;;;;5103931;28;20192;-77
2022/03/28 06:07:13;;;;;;;0.50;0.40;;;9.30;99.90;;;;;;5105122;28;20611;-76
2022/03/28 06:09:40;;;;;;;0.50;0.40;;;9.70;99.90;;;;;;5110567;28;20232;-75
2022/03/28 06:12:08;;;;;;;0.50;0.40;;;9.90;99.90;;;;;;5111698;28;20195;-75
2022/03/28 06:14:36;;;;;;;0.50;0.40;;;10.20;99.90;;;;;;5111509;28;20210;-77
2022/03/28 06:17:03;;;;;;;0.50;0.40;;;10.40;99.90;;;;;;5111637;28;20623;-77
2022/03/28 06:19:30;;;;;;;0.50;0.40;;;10.50;99.90;;;;;;5110320;28;20222;-76
2022/03/28 06:21:56;;;;;;;0.50;0.40;;;10.70;99.90;;;;;;5107231;28;20191;-74
2022/03/28 06:24:23;;;;;;;0.50;0.40;;;10.80;99.90;;;;;;5091804;28;20197;-75
2022/03/28 06:26:50;;;;;;;0.50;0.40;;;10.90;99.90;;;;;;5110947;28;20194;-76
2022/03/28 06:29:16;;;;;;;0.50;0.40;;;11.40;99.90;;;;;;5110844;28;20257;-76
2022/03/28 06:31:44;;;;;;;0.50;0.40;;;11.90;99.90;;;;;;5110831;28;20203;-76
2022/03/28 06:34:11;;;;;;;0.70;0.63;;;12.50;99.90;;;;;;5110565;28;20701;-72
2022/03/28 06:36:39;;;;;;;0.50;0.40;;;13.10;99.90;;;;;;5111095;28;20198;-76
2022/03/28 06:39:05;;;;;;;0.50;0.40;;;13.90;99.90;;;;;;5109747;28;20225;-77
2022/03/28 06:41:32;;;;;;;0.50;0.40;;;14.70;99.90;;;;;;5110046;28;20193;-76
2022/03/28 06:43:59;;;;;;;0.50;0.40;;;15.50;99.90;;;;;;5109987;28;20569;-77
2022/03/28 06:46:26;;;;;;;0.50;0.40;;;16.40;99.90;;;;;;5111545;28;20757;-76
2022/03/28 06:48:54;;;;;;;4.00;2.30;;;17.20;99.90;;;;;;5110698;28;20447;-79
2022/03/28 06:51:21;;;;;;;0.50;0.40;;;18.00;99.90;;;;;;5109174;28;20450;-77
2022/03/28 06:53:49;;;;;;;1.03;1.03;;;18.70;99.90;;;;;;5111186;28;20812;-76
2022/03/28 06:56:16;;;;;;;0.50;0.50;;;19.50;96.60;;;;;;5113251;28;20477;-77
2022/03/28 06:58:43;;;;;;;4.80;4.43;;;20.00;92.20;;;;;;5114637;28;20434;-77
2022/03/28 07:01:10;;;;;;;0.50;0.30;;;20.70;91.10;;;;;;5114622;28;20450;-77
2022/03/28 07:03:37;;;;;;;0.50;0.30;;;21.50;85.90;;;;;;5115139;28;20438;-77
2022/03/28 07:06:06;;;;;;;0.50;0.40;;;21.90;77.80;;;;;;5115006;28;20785;-78
2022/03/28 07:08:32;;;;;;;0.50;0.33;;;22.20;74.80;;;;;;5114392;28;20876;-77
2022/03/28 07:10:59;;;;;;;0.50;0.30;;;22.10;74.10;;;;;;5113257;28;20470;-78
2022/03/28 07:13:26;;;;;;;0.50;0.30;;;22.80;75.00;;;;;;5114813;28;20446;-77
2022/03/28 07:15:53;;;;;;;0.50;0.30;;;23.60;71.60;;;;;;5114843;28;20466;-79
2022/03/28 07:18:19;;;;;;;0.50;0.30;;;24.40;68.30;;;;;;5114823;28;20438;-74
2022/03/28 07:20:46;;;;;;;0.50;0.33;;;24.20;64.90;;;;;;5113999;28;20462;-77
2022/03/28 07:23:14;;;;;;;0.50;0.50;;;24.00;63.90;;;;;;5114406;28;20815;-78
2022/03/28 07:25:41;;;;;;;0.50;0.30;;;24.90;64.90;;;;;;5114614;28;20437;-77
2022/03/28 07:28:09;;;;;;;0.60;0.50;;;25.40;63.50;;;;;;5115001;28;20442;-77
2022/03/28 07:30:36;;;;;;;0.50;0.30;;;24.70;59.10;;;;;;5113850;28;20486;-77
2022/03/28 07:33:04;;;;;;;0.50;0.30;;;24.80;61.00;;;;;;5114267;28;20450;-77
2022/03/28 07:35:32;;;;;;;0.50;0.30;;;25.70;60.20;;;;;;5113976;28;20497;-77
2022/03/28 07:37:59;;;;;;;0.50;0.30;;;26.40;58.70;;;;;;5114551;28;20435;-77
2022/03/28 07:40:27;;;;;;;0.50;0.30;;;26.30;58.40;;;;;;5113731;28;20465;-77
2022/03/28 07:42:54;;;;;;;0.50;0.30;;;26.30;58.60;;;;;;5114328;28;20443;-77
2022/03/28 07:45:23;;;;;;;0.50;0.30;;;27.20;58.30;;;;;;5113875;28;20431;-78
2022/03/28 07:47:50;;;;;;;0.50;0.30;;;28.00;56.50;;;;;;5114060;28;20470;-77
2022/03/28 07:50:16;;;;;;;0.50;0.30;;;28.50;55.70;;;;;;5111809;28;20458;-75
2022/03/28 07:52:43;;;;;;;4.20;2.50;;;29.10;55.40;;;;;;5114456;28;20445;-77
2022/03/28 07:55:11;;;;;;;1.90;1.80;;;29.90;53.70;;;;;;5113520;28;20461;-74
2022/03/28 07:57:41;;;;;;;0.60;0.50;;;29.80;52.30;;;;;;5113948;28;20438;-75
2022/03/28 08:00:11;;;;;;;0.73;0.73;;;29.60;52.50;;;;;;5112938;28;20564;-74
2022/03/28 08:02:38;;;;;;;0.50;0.30;;;29.90;52.50;;;;;;5113779;28;20446;-79
2022/03/28 08:05:05;;;;;;;0.50;0.30;;;29.50;52.60;;;;;;5113762;28;20473;-78
2022/03/28 08:07:33;;;;;;;0.90;0.90;;;29.60;53.00;;;;;;5112463;28;20449;-74
2022/03/28 08:12:42;;;;;;;0.90;0.70;;;29.10;53.10;;;;;;5036292;28;20446;-78
2022/03/28 08:15:10;;;;;;;0.50;0.30;;;29.00;52.80;;;;;;5046273;28;20497;-78
2022/03/28 08:17:37;;;;;;;0.77;0.77;;;29.30;53.20;;;;;;5050710;28;20441;-79
2022/03/28 08:20:06;;;;;;;2.67;1.30;;;29.30;52.70;;;;;;5052731;28;20438;-80
2022/03/28 08:22:33;;;;;;;0.50;0.30;;;29.60;52.90;;;;;;5054721;28;20489;-79
2022/03/28 08:25:00;;;;;;;0.73;0.73;;;29.90;52.90;;;;;;5052680;28;20426;-79
2022/03/28 08:27:26;;;;;;;0.50;0.30;;;30.20;51.70;;;;;;5054204;28;20434;-78
2022/03/28 08:29:54;;;;;;;0.50;0.40;;;30.70;52.50;;;;;;5041895;28;20491;-79
2022/03/28 08:32:21;;;;;;;0.50;0.30;;;30.70;50.90;;;;;;5037718;28;20828;-80
2022/03/28 08:34:48;;;;;;;0.50;0.40;;;29.70;51.10;;;;;;5037685;28;20839;-80
2022/03/28 08:37:16;;;;;;;0.50;0.30;;;29.50;52.00;;;;;;5037550;28;20844;-79
2022/03/28 08:39:44;;;;;;;3.20;1.70;;;29.60;52.40;;;;;;5036245;28;20442;-80
2022/03/28 08:42:12;;;;;;;0.90;0.50;;;29.50;51.60;;;;;;5036404;28;20453;-79
2022/03/28 08:44:39;;;;;;;5.07;2.87;;;28.80;52.20;;;;;;5036972;28;20476;-80
2022/03/28 08:47:09;;;;;;;1.17;1.07;;;29.30;52.80;;;;;;5037138;28;20434;-81
2022/03/28 08:49:36;;;;;;;0.50;0.30;;;29.20;53.20;;;;;;5037398;28;20430;-80
2022/03/28 08:52:04;;;;;;;2.20;0.97;;;29.60;53.20;;;;;;5038680;28;20454;-80
2022/03/28 08:54:30;;;;;;;4.70;2.50;;;29.70;51.30;;;;;;5036956;28;20951;-80
2022/03/28 08:56:57;;;;;;;0.50;0.33;;;29.20;51.80;;;;;;5036109;28;20484;-80
2022/03/28 08:59:24;;;;;;;13.67;2.10;;;28.50;53.10;;;;;;5035331;28;20430;-80
2022/03/28 09:01:51;;;;;;;0.53;0.40;;;28.80;53.50;;;;;;5036145;28;20462;-79
2022/03/28 09:04:19;;;;;;;0.50;0.30;;;29.60;52.80;;;;;;5036231;28;20478;-79
2022/03/28 09:06:46;;;;;;;0.50;0.40;;;30.10;51.90;;;;;;5037238;28;20675;-80
2022/03/28 09:09:19;;;;;;;1.43;1.33;;;30.60;52.70;;;;;;5035275;28;20445;-81
2022/03/28 09:11:47;;;;;;;0.50;0.30;;;31.50;50.10;;;;;;5035955;28;20484;-80
2022/03/28 09:14:24;;;;;;;1.13;1.03;;;31.40;51.20;;;;;;5034261;28;20438;-79
2022/03/28 09:17:04;;;;;;;0.50;0.47;;;31.90;50.80;;;;;;5035421;28;20474;-77
2022/03/28 09:19:52;;;;;;;0.50;0.30;;;32.90;48.70;;;;;;5034124;28;20433;-78
2022/03/28 09:22:20;;;;;;;0.70;0.70;;;32.20;48.10;;;;;;5033173;28;20470;-80
2022/03/28 09:24:48;;;;;;;2.13;1.13;;;32.60;48.60;;;;;;5033087;28;20960;-78
2022/03/28 09:27:17;;;;;;;1.07;1.07;;;33.10;47.90;;;;;;5034870;28;20896;-78
2022/03/28 09:30:08;;;;;;;0.90;0.80;;;33.50;46.50;;;;;;5033871;28;20932;-78
2022/03/28 09:32:36;;;;;;;0.53;0.40;;;33.30;47.80;;;;;;5024959;28;20442;-79
2022/03/28 09:35:19;;;;;;;3.53;3.30;;;33.30;46.80;;;;;;5035292;28;20449;-78
2022/03/28 09:38:01;;;;;;;0.50;0.30;;;32.90;47.20;;;;;;5034985;28;20489;-78
2022/03/28 09:40:33;;;;;;;0.50;0.30;;;33.40;47.30;;;;;;5034208;28;20457;-78
2022/03/28 09:43:03;;;;;;;0.50;0.30;;;33.60;48.50;;;;;;5035599;28;20445;-78
2022/03/28 09:45:35;;;;;;;2.77;2.67;;;33.40;47.00;;;;;;5034217;28;20430;-78
2022/03/28 09:48:06;;;;;;;0.50;0.40;;;32.70;47.20;;;;;;5035349;28;20437;-78
2022/03/28 09:50:39;;;;;;;0.50;0.30;;;32.20;47.90;;;;;;5031026;28;20761;-77
2022/03/28 09:53:15;;;;;;;1.00;0.90;;;31.90;48.00;;;;;;5035502;28;20935;-80
2022/03/28 09:55:54;;;;;;;0.50;0.30;;;31.40;47.70;;;;;;5036237;28;20481;-80
2022/03/28 09:58:42;;;;;;;0.50;0.30;;;30.50;48.90;;;;;;5036478;28;20453;-79
2022/03/28 10:01:14;;;;;;;0.60;0.60;;;31.50;48.60;;;;;;5035123;28;20453;-79
2022/03/28 10:03:42;;;;;;;0.83;0.67;;;32.20;48.20;;;;;;5035932;28;20449;-80
2022/03/28 10:06:10;;;;;;;0.50;0.40;;;32.80;47.30;;;;;;5034950;28;20441;-78
2022/03/28 10:08:38;;;;;;;0.87;0.70;;;33.60;48.10;;;;;;5034562;28;20438;-80
2022/03/28 10:11:05;;;;;;;0.50;0.30;;;34.00;46.50;;;;;;5034475;28;20500;-78
2022/03/28 10:13:32;;;;;;;1.27;0.77;;;33.90;46.50;;;;;;5036556;28;20442;-79
2022/03/28 10:16:00;;;;;;;0.50;0.30;;;33.50;45.30;;;;;;5035369;28;20488;-78
2022/03/28 10:18:29;;;;;;;0.70;0.67;;;33.50;47.00;;;;;;5036027;28;20446;-79
2022/03/28 10:20:58;;;;;;;0.50;0.30;;;34.20;46.10;;;;;;5034518;28;20470;-79
2022/03/28 10:23:30;;;;;;;0.53;0.53;;;34.80;46.30;;;;;;5035324;28;20449;-79
2022/03/28 10:25:58;;;;;;;0.50;0.50;;;35.30;45.40;;;;;;5035010;28;20422;-80
2022/03/28 10:28:25;;;;;;;0.73;0.73;;;35.10;45.30;;;;;;5033532;28;20437;-79
2022/03/28 10:31:12;;;;;;;1.00;1.00;;;34.50;44.30;;;;;;5036126;28;20831;-79
2022/03/28 10:33:47;;;;;;;1.43;1.37;;;34.60;44.70;;;;;;5039973;28;20421;-80
2022/03/28 10:36:27;;;;;;;0.67;0.67;;;34.00;44.10;;;;;;5038610;28;20804;-78
2022/03/28 10:38:57;;;;;;;0.50;0.30;;;33.80;45.80;;;;;;5039201;28;20424;-80
2022/03/28 10:41:26;;;;;;;0.50;0.30;;;33.50;45.20;;;;;;5039038;28;20556;-79
2022/03/28 10:44:02;;;;;;;0.93;0.93;;;33.80;45.20;;;;;;5038734;28;20433;-79
2022/03/28 10:46:36;;;;;;;0.60;0.60;;;33.80;45.40;;;;;;5038762;28;20425;-78
2022/03/28 10:49:03;;;;;;;4.73;2.40;;;33.80;45.00;;;;;;5038315;28;21034;-79
2022/03/28 10:51:32;;;;;;;0.50;0.40;;;33.60;45.80;;;;;;5036903;28;20967;-80
2022/03/28 10:54:03;;;;;;;0.77;0.57;;;33.80;44.80;;;;;;5038834;28;20561;-79
2022/03/28 10:56:33;;;;;;;0.50;0.40;;;34.20;45.20;;;;;;5038694;28;20476;-79
2022/03/28 10:59:01;;;;;;;7.20;1.83;;;34.00;44.30;;;;;;5038008;28;20441;-80
2022/03/28 11:01:31;;;;;;;0.50;0.30;;;34.70;44.00;;;;;;5039352;28;20467;-79
2022/03/28 11:04:03;;;;;;;0.50;0.30;;;33.50;45.80;;;;;;5039236;28;20456;-79
2022/03/28 11:07:03;;;;;;;1.47;0.80;;;33.40;45.50;;;;;;5039869;28;20418;-79
2022/03/28 11:09:46;;;;;;;0.90;0.90;;;32.20;45.80;;;;;;5039161;28;20426;-80
2022/03/28 11:12:14;;;;;;;5.73;5.43;;;32.40;46.90;;;;;;5038256;28;20480;-79
2022/03/28 11:14:44;;;;;;;0.60;0.60;;;32.70;46.00;;;;;;5039093;28;20441;-79
2022/03/28 11:17:18;;;;;;;2.43;1.53;;;32.90;45.60;;;;;;5039236;28;21007;-80
2022/03/28 11:19:57;;;;;;;0.50;0.30;;;31.10;45.80;;;;;;5039480;28;20456;-79
2022/03/28 11:22:45;;;;;;;1.70;1.60;;;30.50;48.20;;;;;;5037170;28;20915;-78
2022/03/28 11:25:36;;;;;;;0.50;0.30;;;31.50;47.50;;;;;;5036938;28;20460;-77
2022/03/28 11:28:08;;;;;;;0.50;0.30;;;32.20;47.40;;;;;;5037731;28;20419;-79
2022/03/28 11:30:38;;;;;;;0.63;0.63;;;33.00;47.30;;;;;;5036937;28;20458;-78
2022/03/28 11:33:10;;;;;;;1.13;1.13;;;32.80;45.10;;;;;;5037297;28;20796;-78
2022/03/28 11:35:38;;;;;;;1.03;0.97;;;33.00;45.40;;;;;;5037463;28;20433;-78
2022/03/28 11:38:06;;;;;;;1.73;1.73;;;33.20;45.80;;;;;;5037291;28;20524;-78
2022/03/28 11:40:41;;;;;;;0.50;0.30;;;33.60;46.40;;;;;;5037075;28;20461;-78
2022/03/28 11:43:09;;;;;;;0.50;0.30;;;34.10;45.60;;;;;;5036812;28;20438;-77
2022/03/28 11:45:36;;;;;;;3.50;1.90;;;34.80;45.30;;;;;;5039149;28;20468;-79
2022/03/28 11:48:04;;;;;;;0.50;0.30;;;33.60;44.30;;;;;;5037921;28;20496;-79
2022/03/28 11:50:31;;;;;;;0.50;0.40;;;33.90;46.50;;;;;;5035640;28;20839;-79
2022/03/28 11:52:59;;;;;;;0.50;0.33;;;33.80;45.90;;;;;;5037615;28;20450;-79
2022/03/28 11:55:29;;;;;;;2.00;1.13;;;34.20;45.00;;;;;;5038318;28;20891;-79
2022/03/28 11:58:16;;;;;;;2.00;1.80;;;34.30;45.00;;;;;;5038179;28;20493;-78
2022/03/28 12:00:45;;;;;;;1.27;1.27;;;33.40;44.20;;;;;;5037010;28;20461;-78
2022/03/28 12:03:13;;;;;;;31.13;29.47;;;33.30;45.50;;;;;;5037919;28;20450;-78
2022/03/28 12:05:42;;;;;;;1.90;1.80;;;32.70;46.00;;;;;;5038058;28;20445;-79
2022/03/28 12:08:10;;;;;;;5.70;2.00;;;32.60;46.50;;;;;;5037948;28;20438;-78
2022/03/28 12:10:39;;;;;;;0.50;0.30;;;32.40;46.10;;;;;;5035758;28;20465;-79
2022/03/28 12:13:09;;;;;;;0.97;0.97;;;32.70;47.40;;;;;;5037322;28;20423;-79
2022/03/28 12:15:38;;;;;;;3.40;2.90;;;32.90;46.80;;;;;;5038499;28;20462;-79
2022/03/28 12:18:08;;;;;;;0.50;0.30;;;32.80;46.20;;;;;;5037271;28;20466;-79
2022/03/28 12:20:38;;;;;;;0.50;0.40;;;32.60;46.20;;;;;;5035937;28;20466;-78
2022/03/28 12:23:05;;;;;;;0.50;0.40;;;32.50;48.20;;;;;;5036643;28;20438;-79
2022/03/28 12:25:36;;;;;;;0.70;0.60;;;32.80;46.70;;;;;;5037337;28;20449;-79
2022/03/28 12:28:08;;;;;;;1.00;0.57;;;32.70;46.20;;;;;;5037945;28;20900;-79
2022/03/28 12:30:38;;;;;;;0.87;0.87;;;31.80;46.10;;;;;;5036353;28;20465;-79
2022/03/28 12:33:15;;;;;;;0.50;0.30;;;31.80;47.20;;;;;;5037193;28;20434;-79
2022/03/28 12:35:45;;;;;;;0.50;0.30;;;31.60;48.10;;;;;;5036648;28;20464;-79
2022/03/28 12:38:18;;;;;;;0.50;0.30;;;31.40;48.20;;;;;;5037054;28;20477;-78
2022/03/28 12:40:46;;;;;;;2.73;2.63;;;31.80;47.50;;;;;;5034473;28;20492;-78
2022/03/28 12:43:15;;;;;;;0.53;0.53;;;31.80;47.00;;;;;;5035299;28;20895;-78
2022/03/28 12:45:43;;;;;;;1.13;0.93;;;31.60;46.80;;;;;;5037575;28;20445;-78
2022/03/28 12:48:11;;;;;;;2.53;2.43;;;31.30;47.10;;;;;;5036791;28;20434;-78
2022/03/28 12:50:52;;;;;;;0.67;0.60;;;31.10;46.80;;;;;;5034900;28;20492;-79
2022/03/28 12:53:19;;;;;;;0.50;0.30;;;31.40;48.40;;;;;;5036275;28;20445;-78
2022/03/28 12:55:47;;;;;;;0.50;0.30;;;31.70;47.50;;;;;;5036608;28;20446;-79
2022/03/28 12:58:15;;;;;;;7.23;6.83;;;32.40;47.20;;;;;;5036545;28;20474;-78
2022/03/28 13:00:44;;;;;;;0.63;0.63;;;31.70;47.40;;;;;;5035747;28;20458;-79
2022/03/28 13:03:26;;;;;;;3.27;2.30;;;31.80;47.60;;;;;;5036042;28;20442;-77